sensor_id;sensor_type;location;lat;lon;timestamp;P1;durP1;ratioP1;P2;durP2;ratioP2
10442;SDS011;5269;51.146;16.986;2023-03-01T00:00:18;51.37;;;30.97;;
10442;SDS011;5269;51.146;16.986;2023-03-01T00:02:45;51.73;;;29.37;;
10442;SDS011;5269;51.146;16.986;2023-03-01T00:05:12;48.80;;;27.97;;
10442;SDS011;5269;51.146;16.986;2023-03-01T00:07:39;49.47;;;29.03;;
10442;SDS011;5269;51.146;16.986;2023-03-01T00:10:07;47.13;;;27.40;;
10442;SDS011;5269;51.146;16.986;2023-03-01T00:12:34;48.33;;;28.83;;
10442;SDS011;5269;51.146;16.986;2023-03-01T00:15:03;49.47;;;28.40;;
10442;SDS011;5269;51.146;16.986;2023-03-01T00:17:31;41.73;;;25.73;;
10442;SDS011;5269;51.146;16.986;2023-03-01T00:19:57;46.83;;;27.60;;
10442;SDS011;5269;51.146;16.986;2023-03-01T00:22:26;44.13;;;27.20;;
10442;SDS011;5269;51.146;16.986;2023-03-01T00:24:54;48.57;;;28.77;;
10442;SDS011;5269;51.146;16.986;2023-03-01T00:27:21;45.47;;;27.20;;
10442;SDS011;5269;51.146;16.986;2023-03-01T00:29:47;47.70;;;27.40;;
10442;SDS011;5269;51.146;16.986;2023-03-01T00:32:16;44.87;;;26.23;;
10442;SDS011;5269;51.146;16.986;2023-03-01T00:34:42;47.20;;;26.27;;
10442;SDS011;5269;51.146;16.986;2023-03-01T00:37:18;44.90;;;24.93;;
10442;SDS011;5269;51.146;16.986;2023-03-01T00:39:46;43.63;;;25.07;;
10442;SDS011;5269;51.146;16.986;2023-03-01T00:42:13;42.30;;;26.57;;
10442;SDS011;5269;51.146;16.986;2023-03-01T00:44:40;40.70;;;24.83;;
10442;SDS011;5269;51.146;16.986;2023-03-01T00:47:06;39.83;;;24.90;;
10442;SDS011;5269;51.146;16.986;2023-03-01T00:49:35;42.97;;;25.43;;
10442;SDS011;5269;51.146;16.986;2023-03-01T00:52:02;46.37;;;25.97;;
10442;SDS011;5269;51.146;16.986;2023-03-01T00:54:28;43.63;;;25.23;;
10442;SDS011;5269;51.146;16.986;2023-03-01T00:56:55;44.73;;;26.20;;
10442;SDS011;5269;51.146;16.986;2023-03-01T00:59:22;301.87;;;139.03;;
10442;SDS011;5269;51.146;16.986;2023-03-01T01:01:49;94.67;;;48.47;;
10442;SDS011;5269;51.146;16.986;2023-03-01T01:04:16;75.27;;;40.27;;
10442;SDS011;5269;51.146;16.986;2023-03-01T01:06:45;69.67;;;36.27;;
10442;SDS011;5269;51.146;16.986;2023-03-01T01:09:13;70.37;;;35.63;;
10442;SDS011;5269;51.146;16.986;2023-03-01T01:11:43;62.23;;;34.30;;
10442;SDS011;5269;51.146;16.986;2023-03-01T01:14:10;62.23;;;34.03;;
10442;SDS011;5269;51.146;16.986;2023-03-01T01:16:37;55.37;;;31.67;;
10442;SDS011;5269;51.146;16.986;2023-03-01T01:19:05;61.93;;;33.87;;
10442;SDS011;5269;51.146;16.986;2023-03-01T01:21:32;50.77;;;31.00;;
10442;SDS011;5269;51.146;16.986;2023-03-01T01:24:02;55.07;;;30.90;;
10442;SDS011;5269;51.146;16.986;2023-03-01T01:26:30;58.77;;;30.53;;
10442;SDS011;5269;51.146;16.986;2023-03-01T01:28:58;57.17;;;32.03;;
10442;SDS011;5269;51.146;16.986;2023-03-01T01:31:27;53.73;;;31.23;;
10442;SDS011;5269;51.146;16.986;2023-03-01T01:33:54;50.70;;;30.17;;
10442;SDS011;5269;51.146;16.986;2023-03-01T01:36:22;53.50;;;29.87;;
10442;SDS011;5269;51.146;16.986;2023-03-01T01:38:49;49.07;;;28.57;;
10442;SDS011;5269;51.146;16.986;2023-03-01T01:41:18;49.13;;;29.43;;
10442;SDS011;5269;51.146;16.986;2023-03-01T01:43:47;50.80;;;27.60;;
10442;SDS011;5269;51.146;16.986;2023-03-01T01:46:19;45.80;;;27.00;;
10442;SDS011;5269;51.146;16.986;2023-03-01T01:48:52;48.33;;;27.63;;
10442;SDS011;5269;51.146;16.986;2023-03-01T01:51:24;47.37;;;26.87;;
10442;SDS011;5269;51.146;16.986;2023-03-01T01:53:55;46.10;;;26.83;;
10442;SDS011;5269;51.146;16.986;2023-03-01T01:56:28;47.47;;;28.30;;
10442;SDS011;5269;51.146;16.986;2023-03-01T01:58:56;43.93;;;25.77;;
10442;SDS011;5269;51.146;16.986;2023-03-01T02:01:23;48.60;;;26.93;;
10442;SDS011;5269;51.146;16.986;2023-03-01T02:03:51;47.20;;;25.97;;
10442;SDS011;5269;51.146;16.986;2023-03-01T02:06:19;49.13;;;26.17;;
10442;SDS011;5269;51.146;16.986;2023-03-01T02:08:53;46.10;;;26.67;;
10442;SDS011;5269;51.146;16.986;2023-03-01T02:11:23;45.83;;;25.57;;
10442;SDS011;5269;51.146;16.986;2023-03-01T02:13:53;44.23;;;24.70;;
10442;SDS011;5269;51.146;16.986;2023-03-01T02:16:21;42.60;;;24.83;;
10442;SDS011;5269;51.146;16.986;2023-03-01T02:18:48;44.73;;;25.67;;
10442;SDS011;5269;51.146;16.986;2023-03-01T02:21:24;43.63;;;24.87;;
10442;SDS011;5269;51.146;16.986;2023-03-01T02:24:01;42.40;;;25.43;;
10442;SDS011;5269;51.146;16.986;2023-03-01T02:26:39;43.23;;;24.83;;
10442;SDS011;5269;51.146;16.986;2023-03-01T02:29:12;42.83;;;24.60;;
10442;SDS011;5269;51.146;16.986;2023-03-01T02:31:39;44.17;;;26.30;;
10442;SDS011;5269;51.146;16.986;2023-03-01T02:34:10;44.57;;;26.33;;
10442;SDS011;5269;51.146;16.986;2023-03-01T02:36:40;40.63;;;25.40;;
10442;SDS011;5269;51.146;16.986;2023-03-01T02:39:12;40.83;;;24.60;;
10442;SDS011;5269;51.146;16.986;2023-03-01T02:41:46;39.77;;;23.97;;
10442;SDS011;5269;51.146;16.986;2023-03-01T02:44:17;43.33;;;25.20;;
10442;SDS011;5269;51.146;16.986;2023-03-01T02:46:44;40.53;;;23.70;;
10442;SDS011;5269;51.146;16.986;2023-03-01T02:49:18;44.57;;;25.73;;
10442;SDS011;5269;51.146;16.986;2023-03-01T02:51:48;41.30;;;24.17;;
10442;SDS011;5269;51.146;16.986;2023-03-01T02:54:28;43.10;;;25.13;;
10442;SDS011;5269;51.146;16.986;2023-03-01T02:57:00;43.07;;;25.33;;
10442;SDS011;5269;51.146;16.986;2023-03-01T02:59:30;41.97;;;24.17;;
10442;SDS011;5269;51.146;16.986;2023-03-01T03:02:04;41.47;;;23.40;;
10442;SDS011;5269;51.146;16.986;2023-03-01T03:04:31;41.90;;;24.20;;
10442;SDS011;5269;51.146;16.986;2023-03-01T03:06:58;38.83;;;23.80;;
10442;SDS011;5269;51.146;16.986;2023-03-01T03:09:24;39.23;;;24.63;;
10442;SDS011;5269;51.146;16.986;2023-03-01T03:11:51;43.20;;;25.87;;
10442;SDS011;5269;51.146;16.986;2023-03-01T03:14:18;58.60;;;33.10;;
10442;SDS011;5269;51.146;16.986;2023-03-01T03:16:47;57.10;;;30.67;;
10442;SDS011;5269;51.146;16.986;2023-03-01T03:19:16;65.50;;;36.60;;
10442;SDS011;5269;51.146;16.986;2023-03-01T03:21:43;55.30;;;31.20;;
10442;SDS011;5269;51.146;16.986;2023-03-01T03:24:10;55.10;;;30.17;;
10442;SDS011;5269;51.146;16.986;2023-03-01T03:26:37;57.03;;;30.07;;
10442;SDS011;5269;51.146;16.986;2023-03-01T03:29:04;53.83;;;30.80;;
10442;SDS011;5269;51.146;16.986;2023-03-01T03:31:31;61.40;;;33.57;;
10442;SDS011;5269;51.146;16.986;2023-03-01T03:33:59;46.50;;;27.87;;
10442;SDS011;5269;51.146;16.986;2023-03-01T03:36:27;45.43;;;26.90;;
10442;SDS011;5269;51.146;16.986;2023-03-01T03:38:53;46.67;;;26.70;;
10442;SDS011;5269;51.146;16.986;2023-03-01T03:41:20;47.97;;;25.53;;
10442;SDS011;5269;51.146;16.986;2023-03-01T03:43:47;45.07;;;24.57;;
10442;SDS011;5269;51.146;16.986;2023-03-01T03:46:14;45.53;;;25.27;;
10442;SDS011;5269;51.146;16.986;2023-03-01T03:48:42;47.07;;;26.63;;
10442;SDS011;5269;51.146;16.986;2023-03-01T03:51:12;44.60;;;24.87;;
10442;SDS011;5269;51.146;16.986;2023-03-01T03:53:41;44.57;;;25.57;;
10442;SDS011;5269;51.146;16.986;2023-03-01T03:56:09;48.47;;;27.53;;
10442;SDS011;5269;51.146;16.986;2023-03-01T03:58:36;46.77;;;26.70;;
10442;SDS011;5269;51.146;16.986;2023-03-01T04:01:03;49.50;;;27.53;;
10442;SDS011;5269;51.146;16.986;2023-03-01T04:03:31;46.23;;;25.77;;
10442;SDS011;5269;51.146;16.986;2023-03-01T04:06:00;44.67;;;24.83;;
10442;SDS011;5269;51.146;16.986;2023-03-01T04:08:28;44.13;;;25.33;;
10442;SDS011;5269;51.146;16.986;2023-03-01T04:10:59;40.47;;;24.60;;
10442;SDS011;5269;51.146;16.986;2023-03-01T04:13:48;41.27;;;24.77;;
10442;SDS011;5269;51.146;16.986;2023-03-01T04:16:15;42.87;;;24.63;;
10442;SDS011;5269;51.146;16.986;2023-03-01T04:18:42;47.53;;;25.10;;
10442;SDS011;5269;51.146;16.986;2023-03-01T04:21:09;47.53;;;25.70;;
10442;SDS011;5269;51.146;16.986;2023-03-01T04:23:38;45.03;;;26.40;;
10442;SDS011;5269;51.146;16.986;2023-03-01T04:26:06;43.97;;;25.23;;
10442;SDS011;5269;51.146;16.986;2023-03-01T04:28:33;39.97;;;24.70;;
10442;SDS011;5269;51.146;16.986;2023-03-01T04:31:03;38.13;;;24.37;;
10442;SDS011;5269;51.146;16.986;2023-03-01T04:33:38;46.93;;;26.50;;
10442;SDS011;5269;51.146;16.986;2023-03-01T04:36:06;44.93;;;26.23;;
10442;SDS011;5269;51.146;16.986;2023-03-01T04:38:34;49.37;;;26.17;;
10442;SDS011;5269;51.146;16.986;2023-03-01T04:41:03;46.40;;;24.67;;
10442;SDS011;5269;51.146;16.986;2023-03-01T04:43:31;44.00;;;26.13;;
10442;SDS011;5269;51.146;16.986;2023-03-01T04:46:02;47.63;;;26.93;;
10442;SDS011;5269;51.146;16.986;2023-03-01T04:48:31;43.37;;;25.63;;
10442;SDS011;5269;51.146;16.986;2023-03-01T04:50:58;44.93;;;25.57;;
10442;SDS011;5269;51.146;16.986;2023-03-01T04:53:26;49.40;;;26.80;;
10442;SDS011;5269;51.146;16.986;2023-03-01T04:55:53;49.43;;;26.57;;
10442;SDS011;5269;51.146;16.986;2023-03-01T04:58:22;49.63;;;26.27;;
10442;SDS011;5269;51.146;16.986;2023-03-01T05:00:49;43.57;;;25.27;;
10442;SDS011;5269;51.146;16.986;2023-03-01T05:03:16;47.83;;;27.50;;
10442;SDS011;5269;51.146;16.986;2023-03-01T05:05:44;50.83;;;27.37;;
10442;SDS011;5269;51.146;16.986;2023-03-01T05:08:13;47.80;;;27.60;;
10442;SDS011;5269;51.146;16.986;2023-03-01T05:10:43;51.13;;;28.97;;
10442;SDS011;5269;51.146;16.986;2023-03-01T05:13:12;53.67;;;27.60;;
10442;SDS011;5269;51.146;16.986;2023-03-01T05:15:41;48.27;;;27.37;;
10442;SDS011;5269;51.146;16.986;2023-03-01T05:18:08;48.20;;;26.97;;
10442;SDS011;5269;51.146;16.986;2023-03-01T05:20:36;48.23;;;26.37;;
10442;SDS011;5269;51.146;16.986;2023-03-01T05:23:03;48.27;;;27.17;;
10442;SDS011;5269;51.146;16.986;2023-03-01T05:25:31;50.03;;;28.30;;
10442;SDS011;5269;51.146;16.986;2023-03-01T05:27:59;48.30;;;27.30;;
10442;SDS011;5269;51.146;16.986;2023-03-01T05:30:29;51.17;;;28.40;;
10442;SDS011;5269;51.146;16.986;2023-03-01T05:32:57;50.03;;;28.70;;
10442;SDS011;5269;51.146;16.986;2023-03-01T05:35:25;49.90;;;27.77;;
10442;SDS011;5269;51.146;16.986;2023-03-01T05:37:52;49.63;;;28.67;;
10442;SDS011;5269;51.146;16.986;2023-03-01T05:40:20;51.63;;;29.07;;
10442;SDS011;5269;51.146;16.986;2023-03-01T05:42:49;54.23;;;29.47;;
10442;SDS011;5269;51.146;16.986;2023-03-01T05:45:18;56.60;;;29.20;;
10442;SDS011;5269;51.146;16.986;2023-03-01T05:47:45;57.43;;;28.83;;
10442;SDS011;5269;51.146;16.986;2023-03-01T05:50:16;52.83;;;28.07;;
10442;SDS011;5269;51.146;16.986;2023-03-01T05:52:45;53.50;;;29.30;;
10442;SDS011;5269;51.146;16.986;2023-03-01T05:55:13;51.80;;;29.10;;
10442;SDS011;5269;51.146;16.986;2023-03-01T05:57:40;56.67;;;29.43;;
10442;SDS011;5269;51.146;16.986;2023-03-01T06:00:08;55.53;;;30.73;;
10442;SDS011;5269;51.146;16.986;2023-03-01T06:02:36;55.70;;;30.03;;
10442;SDS011;5269;51.146;16.986;2023-03-01T06:05:03;55.93;;;31.47;;
10442;SDS011;5269;51.146;16.986;2023-03-01T06:07:32;58.67;;;31.07;;
10442;SDS011;5269;51.146;16.986;2023-03-01T06:10:00;60.70;;;32.90;;
10442;SDS011;5269;51.146;16.986;2023-03-01T06:12:29;60.87;;;33.67;;
10442;SDS011;5269;51.146;16.986;2023-03-01T06:14:57;53.67;;;29.43;;
10442;SDS011;5269;51.146;16.986;2023-03-01T06:17:23;54.93;;;31.43;;
10442;SDS011;5269;51.146;16.986;2023-03-01T06:19:50;59.53;;;32.57;;
10442;SDS011;5269;51.146;16.986;2023-03-01T06:22:17;58.70;;;32.37;;
10442;SDS011;5269;51.146;16.986;2023-03-01T06:24:46;57.47;;;31.57;;
10442;SDS011;5269;51.146;16.986;2023-03-01T06:27:13;54.07;;;30.40;;
10442;SDS011;5269;51.146;16.986;2023-03-01T06:29:40;56.97;;;32.83;;
10442;SDS011;5269;51.146;16.986;2023-03-01T06:32:07;53.47;;;31.73;;
10442;SDS011;5269;51.146;16.986;2023-03-01T06:34:34;60.90;;;32.90;;
10442;SDS011;5269;51.146;16.986;2023-03-01T06:37:01;57.20;;;32.20;;
10442;SDS011;5269;51.146;16.986;2023-03-01T06:39:31;67.27;;;35.90;;
10442;SDS011;5269;51.146;16.986;2023-03-01T06:42:00;61.67;;;34.63;;
10442;SDS011;5269;51.146;16.986;2023-03-01T06:44:26;67.00;;;36.53;;
10442;SDS011;5269;51.146;16.986;2023-03-01T06:46:53;62.23;;;37.03;;
10442;SDS011;5269;51.146;16.986;2023-03-01T06:49:20;62.77;;;35.47;;
10442;SDS011;5269;51.146;16.986;2023-03-01T06:51:47;61.63;;;35.33;;
10442;SDS011;5269;51.146;16.986;2023-03-01T06:54:14;56.27;;;33.90;;
10442;SDS011;5269;51.146;16.986;2023-03-01T06:56:42;58.03;;;34.57;;
10442;SDS011;5269;51.146;16.986;2023-03-01T06:59:10;60.67;;;36.00;;
10442;SDS011;5269;51.146;16.986;2023-03-01T07:01:37;82.17;;;48.43;;
10442;SDS011;5269;51.146;16.986;2023-03-01T07:04:04;128.50;;;72.07;;
10442;SDS011;5269;51.146;16.986;2023-03-01T07:06:31;94.87;;;55.27;;
10442;SDS011;5269;51.146;16.986;2023-03-01T07:08:58;83.60;;;47.83;;
10442;SDS011;5269;51.146;16.986;2023-03-01T07:11:25;104.43;;;62.10;;
10442;SDS011;5269;51.146;16.986;2023-03-01T07:13:52;100.10;;;58.57;;
10442;SDS011;5269;51.146;16.986;2023-03-01T07:16:21;120.20;;;64.83;;
10442;SDS011;5269;51.146;16.986;2023-03-01T07:18:48;100.07;;;55.03;;
10442;SDS011;5269;51.146;16.986;2023-03-01T07:21:15;82.17;;;47.20;;
10442;SDS011;5269;51.146;16.986;2023-03-01T07:23:42;69.67;;;41.07;;
10442;SDS011;5269;51.146;16.986;2023-03-01T07:26:09;65.33;;;39.70;;
10442;SDS011;5269;51.146;16.986;2023-03-01T07:28:36;72.73;;;41.57;;
10442;SDS011;5269;51.146;16.986;2023-03-01T07:31:04;58.27;;;36.03;;
10442;SDS011;5269;51.146;16.986;2023-03-01T07:33:33;54.80;;;34.33;;
10442;SDS011;5269;51.146;16.986;2023-03-01T07:36:01;57.37;;;36.07;;
10442;SDS011;5269;51.146;16.986;2023-03-01T07:38:29;52.93;;;34.37;;
10442;SDS011;5269;51.146;16.986;2023-03-01T07:40:59;53.87;;;32.50;;
10442;SDS011;5269;51.146;16.986;2023-03-01T07:43:26;50.70;;;32.50;;
10442;SDS011;5269;51.146;16.986;2023-03-01T07:45:54;53.63;;;33.03;;
10442;SDS011;5269;51.146;16.986;2023-03-01T07:48:20;53.63;;;33.30;;
10442;SDS011;5269;51.146;16.986;2023-03-01T07:50:49;51.67;;;32.40;;
10442;SDS011;5269;51.146;16.986;2023-03-01T07:53:15;50.30;;;31.83;;
10442;SDS011;5269;51.146;16.986;2023-03-01T07:55:42;46.70;;;29.60;;
10442;SDS011;5269;51.146;16.986;2023-03-01T07:58:09;48.90;;;30.27;;
10442;SDS011;5269;51.146;16.986;2023-03-01T08:00:36;43.10;;;28.60;;
10442;SDS011;5269;51.146;16.986;2023-03-01T08:03:03;36.83;;;23.77;;
10442;SDS011;5269;51.146;16.986;2023-03-01T08:05:30;35.07;;;22.50;;
10442;SDS011;5269;51.146;16.986;2023-03-01T08:07:58;36.77;;;22.43;;
10442;SDS011;5269;51.146;16.986;2023-03-01T08:10:25;33.87;;;21.30;;
10442;SDS011;5269;51.146;16.986;2023-03-01T08:12:52;36.37;;;22.77;;
10442;SDS011;5269;51.146;16.986;2023-03-01T08:15:19;36.53;;;22.73;;
10442;SDS011;5269;51.146;16.986;2023-03-01T08:17:48;36.53;;;23.70;;
10442;SDS011;5269;51.146;16.986;2023-03-01T08:20:16;37.23;;;23.63;;
10442;SDS011;5269;51.146;16.986;2023-03-01T08:22:43;32.67;;;21.50;;
10442;SDS011;5269;51.146;16.986;2023-03-01T08:25:11;34.37;;;22.47;;
10442;SDS011;5269;51.146;16.986;2023-03-01T08:27:38;34.17;;;22.10;;
10442;SDS011;5269;51.146;16.986;2023-03-01T08:30:05;34.87;;;20.83;;
10442;SDS011;5269;51.146;16.986;2023-03-01T08:32:35;29.90;;;19.92;;
10442;SDS011;5269;51.146;16.986;2023-03-01T08:35:02;28.67;;;19.38;;
10442;SDS011;5269;51.146;16.986;2023-03-01T08:37:29;31.00;;;18.73;;
10442;SDS011;5269;51.146;16.986;2023-03-01T08:39:57;27.50;;;17.02;;
10442;SDS011;5269;51.146;16.986;2023-03-01T08:42:26;27.10;;;17.48;;
10442;SDS011;5269;51.146;16.986;2023-03-01T08:44:53;37.75;;;22.05;;
10442;SDS011;5269;51.146;16.986;2023-03-01T08:47:19;36.80;;;25.20;;
10442;SDS011;5269;51.146;16.986;2023-03-01T08:49:46;38.45;;;22.85;;
10442;SDS011;5269;51.146;16.986;2023-03-01T08:52:15;35.22;;;23.67;;
10442;SDS011;5269;51.146;16.986;2023-03-01T08:54:41;35.42;;;23.55;;
10442;SDS011;5269;51.146;16.986;2023-03-01T08:57:08;36.45;;;24.42;;
10442;SDS011;5269;51.146;16.986;2023-03-01T08:59:36;34.37;;;23.47;;
10442;SDS011;5269;51.146;16.986;2023-03-01T09:02:03;37.45;;;23.13;;
10442;SDS011;5269;51.146;16.986;2023-03-01T09:04:30;42.35;;;25.08;;
10442;SDS011;5269;51.146;16.986;2023-03-01T09:06:58;39.63;;;25.33;;
10442;SDS011;5269;51.146;16.986;2023-03-01T09:09:25;38.20;;;26.17;;
10442;SDS011;5269;51.146;16.986;2023-03-01T09:11:52;42.20;;;26.10;;
10442;SDS011;5269;51.146;16.986;2023-03-01T09:14:19;43.20;;;25.47;;
10442;SDS011;5269;51.146;16.986;2023-03-01T09:16:47;42.13;;;25.50;;
10442;SDS011;5269;51.146;16.986;2023-03-01T09:19:14;37.60;;;24.83;;
10442;SDS011;5269;51.146;16.986;2023-03-01T09:21:41;38.35;;;24.90;;
10442;SDS011;5269;51.146;16.986;2023-03-01T09:24:18;35.80;;;23.10;;
10442;SDS011;5269;51.146;16.986;2023-03-01T09:26:46;37.28;;;24.92;;
10442;SDS011;5269;51.146;16.986;2023-03-01T09:29:13;38.38;;;23.83;;
10442;SDS011;5269;51.146;16.986;2023-03-01T09:31:40;37.00;;;23.15;;
10442;SDS011;5269;51.146;16.986;2023-03-01T09:34:09;35.60;;;22.08;;
10442;SDS011;5269;51.146;16.986;2023-03-01T09:36:36;33.38;;;21.60;;
10442;SDS011;5269;51.146;16.986;2023-03-01T09:39:03;32.75;;;20.83;;
10442;SDS011;5269;51.146;16.986;2023-03-01T09:41:45;34.83;;;21.50;;
10442;SDS011;5269;51.146;16.986;2023-03-01T09:44:18;29.35;;;19.70;;
10442;SDS011;5269;51.146;16.986;2023-03-01T09:46:50;31.00;;;21.85;;
10442;SDS011;5269;51.146;16.986;2023-03-01T09:49:19;33.60;;;22.30;;
10442;SDS011;5269;51.146;16.986;2023-03-01T09:51:53;33.38;;;20.80;;
10442;SDS011;5269;51.146;16.986;2023-03-01T09:54:22;32.42;;;23.10;;
10442;SDS011;5269;51.146;16.986;2023-03-01T09:56:53;33.67;;;22.40;;
10442;SDS011;5269;51.146;16.986;2023-03-01T09:59:28;34.58;;;23.10;;
10442;SDS011;5269;51.146;16.986;2023-03-01T10:02:04;35.30;;;20.98;;
10442;SDS011;5269;51.146;16.986;2023-03-01T10:04:49;32.72;;;21.33;;
10442;SDS011;5269;51.146;16.986;2023-03-01T10:07:25;31.30;;;19.23;;
10442;SDS011;5269;51.146;16.986;2023-03-01T10:09:57;31.52;;;19.30;;
10442;SDS011;5269;51.146;16.986;2023-03-01T10:12:27;34.17;;;20.25;;
10442;SDS011;5269;51.146;16.986;2023-03-01T10:15:00;31.67;;;20.58;;
10442;SDS011;5269;51.146;16.986;2023-03-01T10:17:35;29.85;;;20.65;;
10442;SDS011;5269;51.146;16.986;2023-03-01T10:20:17;28.90;;;19.15;;
10442;SDS011;5269;51.146;16.986;2023-03-01T10:22:46;26.88;;;18.95;;
10442;SDS011;5269;51.146;16.986;2023-03-01T10:25:16;29.23;;;19.40;;
10442;SDS011;5269;51.146;16.986;2023-03-01T10:27:51;26.08;;;17.27;;
10442;SDS011;5269;51.146;16.986;2023-03-01T10:30:20;19.80;;;13.57;;
10442;SDS011;5269;51.146;16.986;2023-03-01T10:32:55;19.45;;;12.98;;
10442;SDS011;5269;51.146;16.986;2023-03-01T10:35:25;17.70;;;12.98;;
10442;SDS011;5269;51.146;16.986;2023-03-01T10:38:02;18.23;;;12.63;;
10442;SDS011;5269;51.146;16.986;2023-03-01T10:40:30;18.83;;;13.18;;
10442;SDS011;5269;51.146;16.986;2023-03-01T10:42:58;19.80;;;13.82;;
10442;SDS011;5269;51.146;16.986;2023-03-01T10:45:30;22.15;;;13.95;;
10442;SDS011;5269;51.146;16.986;2023-03-01T10:48:03;24.52;;;14.38;;
10442;SDS011;5269;51.146;16.986;2023-03-01T10:50:40;21.00;;;14.40;;
10442;SDS011;5269;51.146;16.986;2023-03-01T10:53:16;19.45;;;13.60;;
10442;SDS011;5269;51.146;16.986;2023-03-01T10:55:58;18.80;;;14.02;;
10442;SDS011;5269;51.146;16.986;2023-03-01T10:58:27;17.50;;;13.05;;
10442;SDS011;5269;51.146;16.986;2023-03-01T11:00:55;19.00;;;12.82;;
10442;SDS011;5269;51.146;16.986;2023-03-01T11:03:24;19.48;;;13.05;;
10442;SDS011;5269;51.146;16.986;2023-03-01T11:06:00;17.92;;;12.80;;
10442;SDS011;5269;51.146;16.986;2023-03-01T11:08:31;16.83;;;12.02;;
10442;SDS011;5269;51.146;16.986;2023-03-01T11:11:04;19.98;;;13.02;;
10442;SDS011;5269;51.146;16.986;2023-03-01T11:13:32;17.42;;;12.48;;
10442;SDS011;5269;51.146;16.986;2023-03-01T11:16:01;18.70;;;12.60;;
10442;SDS011;5269;51.146;16.986;2023-03-01T11:18:30;17.23;;;13.38;;
10442;SDS011;5269;51.146;16.986;2023-03-01T11:20:58;17.02;;;12.82;;
10442;SDS011;5269;51.146;16.986;2023-03-01T11:23:28;16.17;;;11.52;;
10442;SDS011;5269;51.146;16.986;2023-03-01T11:25:57;15.40;;;11.48;;
10442;SDS011;5269;51.146;16.986;2023-03-01T11:28:27;16.55;;;11.45;;
10442;SDS011;5269;51.146;16.986;2023-03-01T11:30:58;14.27;;;10.77;;
10442;SDS011;5269;51.146;16.986;2023-03-01T11:33:39;15.13;;;11.18;;
10442;SDS011;5269;51.146;16.986;2023-03-01T11:36:15;13.50;;;10.80;;
10442;SDS011;5269;51.146;16.986;2023-03-01T11:38:54;15.88;;;11.43;;
10442;SDS011;5269;51.146;16.986;2023-03-01T11:41:23;16.80;;;11.40;;
10442;SDS011;5269;51.146;16.986;2023-03-01T11:43:55;15.90;;;11.02;;
10442;SDS011;5269;51.146;16.986;2023-03-01T11:46:37;11.75;;;10.07;;
10442;SDS011;5269;51.146;16.986;2023-03-01T11:52:20;13.88;;;10.75;;
10442;SDS011;5269;51.146;16.986;2023-03-01T11:54:55;15.07;;;10.60;;
10442;SDS011;5269;51.146;16.986;2023-03-01T11:57:43;15.70;;;10.52;;
10442;SDS011;5269;51.146;16.986;2023-03-01T12:00:31;13.60;;;10.10;;
10442;SDS011;5269;51.146;16.986;2023-03-01T12:03:17;14.80;;;9.90;;
10442;SDS011;5269;51.146;16.986;2023-03-01T12:05:56;14.55;;;9.80;;
10442;SDS011;5269;51.146;16.986;2023-03-01T12:08:51;13.18;;;9.60;;
10442;SDS011;5269;51.146;16.986;2023-03-01T12:11:32;10.90;;;8.60;;
10442;SDS011;5269;51.146;16.986;2023-03-01T12:14:13;13.70;;;8.65;;
10442;SDS011;5269;51.146;16.986;2023-03-01T12:17:07;11.90;;;8.10;;
10442;SDS011;5269;51.146;16.986;2023-03-01T12:20:02;10.77;;;8.57;;
10442;SDS011;5269;51.146;16.986;2023-03-01T12:22:44;8.95;;;7.78;;
10442;SDS011;5269;51.146;16.986;2023-03-01T12:25:20;8.45;;;7.20;;
10442;SDS011;5269;51.146;16.986;2023-03-01T12:31:08;10.40;;;7.32;;
10442;SDS011;5269;51.146;16.986;2023-03-01T12:34:01;10.07;;;7.03;;
10442;SDS011;5269;51.146;16.986;2023-03-01T12:36:41;10.27;;;8.25;;
10442;SDS011;5269;51.146;16.986;2023-03-01T12:39:29;9.98;;;6.57;;
10442;SDS011;5269;51.146;16.986;2023-03-01T12:42:07;7.88;;;6.10;;
10442;SDS011;5269;51.146;16.986;2023-03-01T12:44:45;8.32;;;6.15;;
10442;SDS011;5269;51.146;16.986;2023-03-01T12:47:36;8.05;;;6.13;;
10442;SDS011;5269;51.146;16.986;2023-03-01T12:50:19;9.88;;;6.78;;
10442;SDS011;5269;51.146;16.986;2023-03-01T12:52:49;10.75;;;6.53;;
10442;SDS011;5269;51.146;16.986;2023-03-01T12:55:24;8.82;;;6.00;;
10442;SDS011;5269;51.146;16.986;2023-03-01T12:58:00;8.80;;;6.05;;
10442;SDS011;5269;51.146;16.986;2023-03-01T13:00:35;7.03;;;5.50;;
10442;SDS011;5269;51.146;16.986;2023-03-01T13:03:09;8.63;;;5.32;;
10442;SDS011;5269;51.146;16.986;2023-03-01T13:05:47;8.27;;;6.20;;
10442;SDS011;5269;51.146;16.986;2023-03-01T13:08:27;7.15;;;5.72;;
10442;SDS011;5269;51.146;16.986;2023-03-01T13:11:00;8.73;;;5.53;;
10442;SDS011;5269;51.146;16.986;2023-03-01T13:13:31;7.85;;;5.80;;
10442;SDS011;5269;51.146;16.986;2023-03-01T13:15:58;9.13;;;6.35;;
10442;SDS011;5269;51.146;16.986;2023-03-01T13:19:08;8.05;;;6.18;;
10442;SDS011;5269;51.146;16.986;2023-03-01T13:21:39;8.10;;;6.47;;
10442;SDS011;5269;51.146;16.986;2023-03-01T13:27:08;8.73;;;6.32;;
10442;SDS011;5269;51.146;16.986;2023-03-01T13:29:43;10.70;;;6.97;;
10442;SDS011;5269;51.146;16.986;2023-03-01T13:32:20;8.05;;;6.63;;
10442;SDS011;5269;51.146;16.986;2023-03-01T13:34:49;8.63;;;6.55;;
10442;SDS011;5269;51.146;16.986;2023-03-01T13:37:27;9.57;;;6.75;;
10442;SDS011;5269;51.146;16.986;2023-03-01T13:39:56;9.48;;;7.40;;
10442;SDS011;5269;51.146;16.986;2023-03-01T13:42:39;8.93;;;7.45;;
10442;SDS011;5269;51.146;16.986;2023-03-01T13:45:25;10.05;;;7.47;;
10442;SDS011;5269;51.146;16.986;2023-03-01T13:48:02;10.15;;;7.57;;
10442;SDS011;5269;51.146;16.986;2023-03-01T13:50:37;9.98;;;8.00;;
10442;SDS011;5269;51.146;16.986;2023-03-01T13:53:11;12.00;;;8.00;;
10442;SDS011;5269;51.146;16.986;2023-03-01T13:55:44;8.48;;;7.03;;
10442;SDS011;5269;51.146;16.986;2023-03-01T13:58:19;10.65;;;7.57;;
10442;SDS011;5269;51.146;16.986;2023-03-01T14:00:55;10.45;;;7.35;;
10442;SDS011;5269;51.146;16.986;2023-03-01T14:03:24;10.70;;;7.78;;
10442;SDS011;5269;51.146;16.986;2023-03-01T14:05:59;9.68;;;6.95;;
10442;SDS011;5269;51.146;16.986;2023-03-01T14:08:28;9.30;;;6.63;;
10442;SDS011;5269;51.146;16.986;2023-03-01T14:14:04;9.50;;;7.68;;
10442;SDS011;5269;51.146;16.986;2023-03-01T14:16:46;11.57;;;8.02;;
10442;SDS011;5269;51.146;16.986;2023-03-01T14:19:21;11.20;;;7.78;;
10442;SDS011;5269;51.146;16.986;2023-03-01T14:21:58;10.13;;;7.90;;
10442;SDS011;5269;51.146;16.986;2023-03-01T14:24:27;11.80;;;8.02;;
10442;SDS011;5269;51.146;16.986;2023-03-01T14:26:54;9.65;;;7.53;;
10442;SDS011;5269;51.146;16.986;2023-03-01T14:29:25;8.25;;;7.05;;
10442;SDS011;5269;51.146;16.986;2023-03-01T14:31:53;10.82;;;7.13;;
10442;SDS011;5269;51.146;16.986;2023-03-01T14:34:22;9.35;;;7.05;;
10442;SDS011;5269;51.146;16.986;2023-03-01T14:36:50;13.20;;;8.02;;
10442;SDS011;5269;51.146;16.986;2023-03-01T14:39:17;9.98;;;7.35;;
10442;SDS011;5269;51.146;16.986;2023-03-01T14:41:46;9.45;;;7.25;;
10442;SDS011;5269;51.146;16.986;2023-03-01T14:44:16;11.23;;;7.70;;
10442;SDS011;5269;51.146;16.986;2023-03-01T14:46:51;8.93;;;7.32;;
10442;SDS011;5269;51.146;16.986;2023-03-01T14:49:20;11.05;;;8.40;;
10442;SDS011;5269;51.146;16.986;2023-03-01T14:51:52;11.90;;;8.25;;
10442;SDS011;5269;51.146;16.986;2023-03-01T14:54:23;11.25;;;8.52;;
10442;SDS011;5269;51.146;16.986;2023-03-01T14:56:52;11.52;;;8.73;;